Meteorología y climatología de Navarra
Datos de la estación - Meteo Navarra

Estación de Tudela (Montes del Cierzo) GN

Altitud 314 m.


Datos desde el 11/01/2019 hasta el 12/01/2019 en horario solar
Los datos son PROVISIONALES

Anterior Página 1 de 1 Siguiente Descargar: Formato para Excel 2000 o superior   Formato csv   Formato para OpenOffice Calc
Fecha Temperatura Humedad relativa Radiación global Insolación Precipitación Velocidad viento 10 m Velocidad viento 10 m Dirección viento 10 m
ºC % W/m² s l/m² m/s km/h º
11/01/2019 0:00 0.9 69 0.0 0 0.0 7.0 25.3 323
11/01/2019 0:10 0.8 70 0.0 0 0.0 6.8 24.6 324
11/01/2019 0:20 0.8 71 0.0 0 0.0 6.4 23.1 326
11/01/2019 0:30 1.0 71 0.0 0 0.0 6.6 23.7 327
11/01/2019 0:40 0.9 72 0.0 0 0.0 5.8 20.8 328
11/01/2019 0:50 0.8 72 0.0 0 0.0 5.6 20.0 329
11/01/2019 1:00 0.8 72 0.0 0 0.0 5.9 21.1 328
11/01/2019 1:10 0.8 72 0.0 0 0.0 5.4 19.5 327
11/01/2019 1:20 0.7 72 0.0 0 0.0 4.9 17.6 328
11/01/2019 1:30 0.8 72 0.0 0 0.0 4.7 17.0 325
11/01/2019 1:40 0.8 72 0.0 0 0.0 4.5 16.3 321
11/01/2019 1:50 0.8 71 0.0 0 0.0 4.1 14.8 307
11/01/2019 2:00 0.7 72 0.0 0 0.0 4.7 17.0 298
11/01/2019 2:10 0.7 73 0.0 0 0.0 5.6 20.1 295
11/01/2019 2:20 0.7 72 0.0 0 0.0 6.2 22.2 298
11/01/2019 2:30 0.9 71 0.0 0 0.0 6.9 24.8 294
11/01/2019 2:40 1.1 70 0.0 0 0.0 7.1 25.4 295
11/01/2019 2:50 1.0 70 0.0 0 0.0 6.4 23.1 300
11/01/2019 3:00 1.1 70 0.0 0 0.0 6.8 24.4 305
11/01/2019 3:10 1.1 70 0.0 0 0.0 7.1 25.6 305
11/01/2019 3:20 1.0 69 0.0 0 0.0 6.8 24.4 309
11/01/2019 3:30 1.0 69 0.0 0 0.0 7.0 25.1 311
11/01/2019 3:40 1.3 67 0.0 0 0.0 7.0 25.2 313
11/01/2019 3:50 1.6 65 0.0 0 0.0 7.6 27.2 316
11/01/2019 4:00 1.5 65 0.0 0 0.0 7.6 27.5 323
11/01/2019 4:10 1.4 65 0.0 0 0.0 7.7 27.6 322
11/01/2019 4:20 1.5 63 0.0 0 0.0 8.1 29.1 316
11/01/2019 4:30 1.6 63 0.0 0 0.0 7.7 27.7 317
11/01/2019 4:40 1.5 63 0.0 0 0.0 7.6 27.2 315
11/01/2019 4:50 1.5 62 0.0 0 0.0 8.3 29.7 312
11/01/2019 5:00 1.5 62 0.0 0 0.0 7.9 28.5 311
11/01/2019 5:10 1.5 62 0.0 0 0.0 8.6 30.9 316
11/01/2019 5:20 1.5 62 0.0 0 0.0 8.5 30.7 317
11/01/2019 5:30 1.4 63 0.0 0 0.0 8.4 30.2 317
11/01/2019 5:40 1.4 63 0.0 0 0.0 8.7 31.4 315
11/01/2019 5:50 1.5 62 0.0 0 0.0 9.4 33.8 317
11/01/2019 6:00 1.4 63 0.0 0 0.0 8.4 30.1 314
11/01/2019 6:10 1.3 64 0.0 0 0.0 8.6 31.0 312
11/01/2019 6:20 1.4 64 0.0 0 0.0 8.0 28.8 311
11/01/2019 6:30 1.4 64 0.0 0 0.0 7.5 27.0 312
11/01/2019 6:40 1.5 64 0.0 0 0.0 7.5 27.0 310
11/01/2019 6:50 1.4 64 0.0 0 0.0 7.1 25.5 312
11/01/2019 7:00 1.4 64 0.0 0 0.0 7.0 25.2 313
11/01/2019 7:10 1.4 63 0.0 0 0.0 6.8 24.6 312
11/01/2019 7:20 1.6 62 0.0 0 0.0 8.5 30.7 313
11/01/2019 7:30 1.6 63 0.0 0 0.0 7.7 27.8 314
11/01/2019 7:40 1.5 63 0.0 0 0.0 8.5 30.7 315
11/01/2019 7:50 1.6 62 10.8 0 0.0 8.7 31.3 318
11/01/2019 8:00 1.7 63 32.5 326 0.0 9.0 32.3 323
11/01/2019 8:10 1.8 63 54.3 600 0.0 8.8 31.5 323
11/01/2019 8:20 1.9 62 73.8 538 0.0 9.1 32.6 321
11/01/2019 8:30 2.2 61 110.3 600 0.0 8.2 29.4 321
11/01/2019 8:40 2.3 61 100.8 564 0.0 7.8 28.2 319
11/01/2019 8:50 2.5 60 150.6 600 0.0 6.8 24.6 315
11/01/2019 9:00 2.8 59 178.3 600 0.0 7.7 27.6 314
11/01/2019 9:10 3.2 57 205.2 600 0.0 7.5 26.9 311
11/01/2019 9:20 3.5 54 223.8 600 0.0 8.1 29.0 311
11/01/2019 9:30 3.7 53 251.8 600 0.0 7.9 28.4 312
11/01/2019 9:40 4.3 52 274.3 600 0.0 7.3 26.4 318
11/01/2019 9:50 4.4 49 297.0 600 0.0 8.1 29.1 318
11/01/2019 10:00 4.7 46 320.7 600 0.0 8.4 30.1 323
11/01/2019 10:10 4.8 45 339.5 600 0.0 9.0 32.2 326
11/01/2019 10:20 5.1 45 359.4 600 0.0 8.2 29.6 324
11/01/2019 10:30 5.3 45 378.0 600 0.0 8.2 29.4 327
11/01/2019 10:40 5.6 44 396.9 600 0.0 7.8 28.2 329
11/01/2019 10:50 5.9 42 415.8 600 0.0 8.9 31.9 334
11/01/2019 11:00 5.9 42 433.2 600 0.0 9.4 33.9 332
11/01/2019 11:10 6.1 42 446.5 600 0.0 9.5 34.3 337
11/01/2019 11:20 6.3 42 457.3 600 0.0 9.9 35.6 339
11/01/2019 11:30 6.4 41 463.5 600 0.0 9.4 33.9 340
11/01/2019 11:40 6.6 41 464.2 600 0.0 11.0 39.5 339
11/01/2019 11:50 6.5 40 463.1 600 0.0 11.7 42.0 341
11/01/2019 12:00 6.6 40 459.4 600 0.0 10.9 39.3 341
11/01/2019 12:10 6.8 39 454.6 600 0.0 11.8 42.6 342
11/01/2019 12:20 6.9 38 453.5 600 0.0 12.0 43.1 341
11/01/2019 12:30 6.9 38 454.4 600 0.0 12.3 44.1 343
11/01/2019 12:40 6.9 37 457.8 600 0.0 11.9 42.7 342
11/01/2019 12:50 6.8 37 459.6 600 0.0 11.9 42.9 343
11/01/2019 13:00 7.1 37 459.1 600 0.0 12.3 44.4 341
11/01/2019 13:10 7.0 38 454.6 600 0.0 12.7 45.6 346
11/01/2019 13:20 7.1 38 447.6 600 0.0 13.5 48.6 343
11/01/2019 13:30 7.0 38 438.1 600 0.0 13.4 48.2 345
11/01/2019 13:40 7.1 38 426.1 600 0.0 12.5 45.0 345
11/01/2019 13:50 7.3 38 411.1 600 0.0 11.6 41.8 346
11/01/2019 14:00 7.2 38 396.6 600 0.0 11.4 41.1 345
11/01/2019 14:10 7.3 38 382.4 600 0.0 11.0 39.4 346
11/01/2019 14:20 7.2 38 366.2 600 0.0 10.9 39.2 347
11/01/2019 14:30 7.2 39 347.2 600 0.0 11.3 40.8 345
11/01/2019 14:40 7.2 39 325.0 600 0.0 10.8 38.8 349
11/01/2019 14:50 7.0 40 300.4 600 0.0 11.2 40.3 348
11/01/2019 15:00 6.8 41 275.4 600 0.0 11.3 40.8 349
11/01/2019 15:10 6.8 42 250.4 600 0.0 11.7 41.9 346
11/01/2019 15:20 6.6 43 225.9 600 0.0 11.2 40.4 350
11/01/2019 15:30 6.6 44 198.6 600 0.0 10.4 37.4 352
11/01/2019 15:40 6.4 44 170.2 600 0.0 10.5 37.6 353
11/01/2019 15:50 6.3 46 142.1 600 0.0 9.5 34.2 349
11/01/2019 16:00 6.1 47 116.7 600 0.0 9.2 33.0 348
11/01/2019 16:10 5.9 48 59.8 244 0.0 9.4 33.7 347
11/01/2019 16:20 5.7 50 50.3 244 0.0 9.2 33.1 349
11/01/2019 16:30 5.6 52 27.4 188 0.0 7.9 28.4 346
11/01/2019 16:40 5.8 50 0.0 0 0.0 9.7 34.8 341
11/01/2019 16:50 5.8 50 0.0 0 0.0 9.3 33.3 339
11/01/2019 17:00 5.8 50 0.0 0 0.0 10.7 38.6 339
11/01/2019 17:10 5.6 51 0.0 0 0.0 10.6 38.1 336
11/01/2019 17:20 5.5 53 0.0 0 0.0 12.3 44.1 337
11/01/2019 17:30 5.4 53 0.0 0 0.0 13.5 48.5 339
11/01/2019 17:40 5.4 53 0.0 0 0.0 15.3 54.9 340
11/01/2019 17:50 5.2 55 0.0 0 0.0 13.9 50.0 337
11/01/2019 18:00 5.1 56 0.0 0 0.0 13.2 47.5 336
11/01/2019 18:10 5.0 56 0.0 0 0.0 12.7 45.7 335
11/01/2019 18:20 5.0 57 0.0 0 0.0 12.0 43.1 336
11/01/2019 18:30 4.8 58 0.0 0 0.0 9.9 35.7 333
11/01/2019 18:40 4.7 59 0.0 0 0.0 10.2 36.7 334
11/01/2019 18:50 4.7 60 0.0 0 0.0 9.0 32.4 332
11/01/2019 19:00 4.6 60 0.0 0 0.0 8.7 31.4 327
11/01/2019 19:10 4.6 61 0.0 0 0.0 8.6 31.0 326
11/01/2019 19:20 4.6 61 0.0 0 0.0 8.2 29.3 325
11/01/2019 19:30 4.5 62 0.0 0 0.0 7.4 26.5 322
11/01/2019 19:40 4.2 65 0.0 0 0.0 7.5 27.1 323
11/01/2019 19:50 4.1 66 0.0 0 0.0 7.9 28.4 325
11/01/2019 20:00 4.2 68 0.0 0 0.0 8.6 30.9 328
11/01/2019 20:10 4.3 68 0.0 0 0.0 9.0 32.3 331
11/01/2019 20:20 4.5 69 0.0 0 0.0 9.7 35.0 330
11/01/2019 20:30 4.6 70 0.0 0 0.0 8.4 30.3 330
11/01/2019 20:40 4.6 71 0.0 0 0.0 8.9 32.1 325
11/01/2019 20:50 4.6 72 0.0 0 0.0 9.4 33.9 329
11/01/2019 21:00 4.5 73 0.0 0 0.0 8.4 30.2 329
11/01/2019 21:10 4.4 73 0.0 0 0.0 7.9 28.5 327
11/01/2019 21:20 4.4 74 0.0 0 0.0 7.1 25.5 323
11/01/2019 21:30 4.3 74 0.0 0 0.0 6.6 23.8 321
11/01/2019 21:40 4.2 75 0.0 0 0.0 7.5 26.9 323
11/01/2019 21:50 4.2 76 0.0 0 0.0 8.1 29.2 322
11/01/2019 22:00 4.4 75 0.0 0 0.0 8.2 29.5 321
11/01/2019 22:10 4.4 75 0.0 0 0.0 8.0 28.8 315
11/01/2019 22:20 4.4 75 0.0 0 0.0 8.5 30.5 307
11/01/2019 22:30 4.3 76 0.0 0 0.0 7.9 28.4 304
11/01/2019 22:40 4.4 76 0.0 0 0.0 8.3 29.7 307
11/01/2019 22:50 4.4 76 0.0 0 0.0 8.0 28.7 305
11/01/2019 23:00 4.4 76 0.0 0 0.0 8.3 29.9 304
11/01/2019 23:10 4.4 76 0.0 0 0.0 7.7 27.6 305
11/01/2019 23:20 4.6 75 0.0 0 0.0 8.1 29.2 307
11/01/2019 23:30 4.5 76 0.0 0 0.0 7.3 26.1 308
11/01/2019 23:40 4.6 76 0.0 0 0.0 6.3 22.8 312
11/01/2019 23:50 4.6 76 0.0 0 0.0 6.2 22.3 317
Anterior Página 1 de 1 Siguiente

NOTA: Tipo de datos según el color:
   - Valores diarios o 10 minutos correctos
   - Valores diarios calculados a partir de un número de datos 10 minutos menor que 144 y mayor que 120, o de un número de datos semihorarios menor que 48 y mayor que 40 (caso de las estaciones de Riegos de Navarra y del MARM)
   - Valores diez minutos estimados


Contacto        Enlaces        Aviso legal